sensor_id;sensor_type;location;lat;lon;timestamp;pressure;altitude;pressure_sealevel;temperature;humidity
78206;BME280;67480;48.920;12.880;2023-05-10T00:00:09;96446.72;;;14.78;46.42
78206;BME280;67480;48.920;12.880;2023-05-10T00:02:34;96461.53;;;14.84;45.01
78206;BME280;67480;48.920;12.880;2023-05-10T00:05:00;96461.28;;;14.89;44.24
78206;BME280;67480;48.920;12.880;2023-05-10T00:07:25;96458.56;;;14.89;43.37
78206;BME280;67480;48.920;12.880;2023-05-10T00:09:50;96466.88;;;14.80;43.99
78206;BME280;67480;48.920;12.880;2023-05-10T00:12:16;96466.22;;;14.67;43.98
78206;BME280;67480;48.920;12.880;2023-05-10T00:14:41;96440.97;;;14.63;44.62
78206;BME280;67480;48.920;12.880;2023-05-10T00:17:07;96443.97;;;14.58;45.49
78206;BME280;67480;48.920;12.880;2023-05-10T00:19:32;96440.44;;;14.73;45.05
78206;BME280;67480;48.920;12.880;2023-05-10T00:21:57;96436.03;;;14.85;45.60
78206;BME280;67480;48.920;12.880;2023-05-10T00:24:22;96448.09;;;14.87;45.74
78206;BME280;67480;48.920;12.880;2023-05-10T00:26:48;96453.75;;;14.82;45.17
78206;BME280;67480;48.920;12.880;2023-05-10T00:29:13;96443.84;;;14.70;45.19
78206;BME280;67480;48.920;12.880;2023-05-10T00:31:38;96454.94;;;14.65;44.98
78206;BME280;67480;48.920;12.880;2023-05-10T00:34:03;96463.28;;;14.41;46.06
78206;BME280;67480;48.920;12.880;2023-05-10T00:36:29;96445.66;;;14.47;46.21
78206;BME280;67480;48.920;12.880;2023-05-10T00:38:56;96435.16;;;14.29;47.40
78206;BME280;67480;48.920;12.880;2023-05-10T00:41:21;96466.66;;;14.22;47.12
78206;BME280;67480;48.920;12.880;2023-05-10T00:43:46;96438.47;;;14.23;47.07
78206;BME280;67480;48.920;12.880;2023-05-10T00:46:13;96438.19;;;14.28;47.72
78206;BME280;67480;48.920;12.880;2023-05-10T00:48:39;96443.63;;;14.28;47.89
78206;BME280;67480;48.920;12.880;2023-05-10T00:51:04;96443.97;;;14.42;47.92
78206;BME280;67480;48.920;12.880;2023-05-10T00:53:31;96444.94;;;14.50;47.82
78206;BME280;67480;48.920;12.880;2023-05-10T00:55:57;96438.63;;;14.30;47.51
78206;BME280;67480;48.920;12.880;2023-05-10T00:58:22;96435.44;;;14.40;47.55
78206;BME280;67480;48.920;12.880;2023-05-10T01:00:49;96444.31;;;14.57;46.87
78206;BME280;67480;48.920;12.880;2023-05-10T01:03:15;96446.69;;;14.58;46.40
78206;BME280;67480;48.920;12.880;2023-05-10T01:05:40;96442.66;;;14.52;47.69
78206;BME280;67480;48.920;12.880;2023-05-10T01:08:06;96446.56;;;14.54;48.29
78206;BME280;67480;48.920;12.880;2023-05-10T01:10:32;96443.09;;;14.54;48.21
78206;BME280;67480;48.920;12.880;2023-05-10T01:12:59;96445.78;;;14.54;47.94
78206;BME280;67480;48.920;12.880;2023-05-10T01:15:24;96444.59;;;14.51;48.02
78206;BME280;67480;48.920;12.880;2023-05-10T01:17:51;96447.53;;;14.46;47.66
78206;BME280;67480;48.920;12.880;2023-05-10T01:20:17;96452.38;;;14.53;47.93
78206;BME280;67480;48.920;12.880;2023-05-10T01:22:54;96457.25;;;14.47;47.93
78206;BME280;67480;48.920;12.880;2023-05-10T01:34:20;96450.59;;;14.29;48.17
78206;BME280;67480;48.920;12.880;2023-05-10T01:36:58;96443.81;;;14.19;47.17
78206;BME280;67480;48.920;12.880;2023-05-10T01:42:10;96441.59;;;14.09;48.63
78206;BME280;67480;48.920;12.880;2023-05-10T01:44:50;96444.22;;;14.21;48.28
78206;BME280;67480;48.920;12.880;2023-05-10T01:47:33;96447.28;;;14.20;47.55
78206;BME280;67480;48.920;12.880;2023-05-10T01:50:03;96454.63;;;14.19;48.06
78206;BME280;67480;48.920;12.880;2023-05-10T01:52:37;96445.28;;;14.16;47.95
78206;BME280;67480;48.920;12.880;2023-05-10T01:55:09;96445.09;;;14.25;47.89
78206;BME280;67480;48.920;12.880;2023-05-10T01:57:37;96440.81;;;14.24;47.91
78206;BME280;67480;48.920;12.880;2023-05-10T02:00:06;96448.16;;;14.24;48.18
78206;BME280;67480;48.920;12.880;2023-05-10T02:02:37;96447.00;;;14.25;48.31
78206;BME280;67480;48.920;12.880;2023-05-10T02:05:03;96446.25;;;14.24;47.99
78206;BME280;67480;48.920;12.880;2023-05-10T02:07:31;96443.09;;;14.06;48.21
78206;BME280;67480;48.920;12.880;2023-05-10T02:09:58;96447.28;;;14.20;48.39
78206;BME280;67480;48.920;12.880;2023-05-10T02:12:24;96446.66;;;14.26;48.37
78206;BME280;67480;48.920;12.880;2023-05-10T02:14:51;96448.53;;;14.22;48.27
78206;BME280;67480;48.920;12.880;2023-05-10T02:17:18;96449.09;;;14.15;48.30
78206;BME280;67480;48.920;12.880;2023-05-10T02:19:44;96456.28;;;14.08;48.02
78206;BME280;67480;48.920;12.880;2023-05-10T02:22:11;96454.97;;;14.17;48.38
78206;BME280;67480;48.920;12.880;2023-05-10T02:24:38;96446.22;;;14.08;49.14
78206;BME280;67480;48.920;12.880;2023-05-10T02:27:04;96452.00;;;14.07;49.15
78206;BME280;67480;48.920;12.880;2023-05-10T02:29:31;96445.38;;;14.04;49.06
78206;BME280;67480;48.920;12.880;2023-05-10T02:31:57;96450.88;;;14.08;48.65
78206;BME280;67480;48.920;12.880;2023-05-10T02:34:25;96448.41;;;14.18;47.94
78206;BME280;67480;48.920;12.880;2023-05-10T02:36:52;96451.13;;;14.18;48.61
78206;BME280;67480;48.920;12.880;2023-05-10T02:39:19;96446.06;;;14.17;48.32
78206;BME280;67480;48.920;12.880;2023-05-10T02:41:46;96451.91;;;14.03;48.41
78206;BME280;67480;48.920;12.880;2023-05-10T02:44:14;96446.16;;;14.05;47.54
78206;BME280;67480;48.920;12.880;2023-05-10T02:46:40;96445.19;;;14.13;47.04
78206;BME280;67480;48.920;12.880;2023-05-10T02:49:06;96450.19;;;14.11;47.74
78206;BME280;67480;48.920;12.880;2023-05-10T02:51:34;96444.31;;;14.25;47.95
78206;BME280;67480;48.920;12.880;2023-05-10T02:54:06;96443.00;;;14.18;47.70
78206;BME280;67480;48.920;12.880;2023-05-10T02:56:36;96445.34;;;14.20;48.17
78206;BME280;67480;48.920;12.880;2023-05-10T02:59:04;96444.75;;;14.27;48.33
78206;BME280;67480;48.920;12.880;2023-05-10T03:01:30;96443.34;;;14.17;48.78
78206;BME280;67480;48.920;12.880;2023-05-10T03:03:55;96441.59;;;14.25;48.62
78206;BME280;67480;48.920;12.880;2023-05-10T03:06:20;96445.63;;;14.15;48.56
78206;BME280;67480;48.920;12.880;2023-05-10T03:08:46;96441.88;;;14.20;49.11
78206;BME280;67480;48.920;12.880;2023-05-10T03:11:32;96437.41;;;14.11;49.34
78206;BME280;67480;48.920;12.880;2023-05-10T03:16:40;96440.13;;;14.11;49.50
78206;BME280;67480;48.920;12.880;2023-05-10T03:21:41;96444.66;;;13.91;49.79
78206;BME280;67480;48.920;12.880;2023-05-10T03:24:11;96441.78;;;14.00;50.49
78206;BME280;67480;48.920;12.880;2023-05-10T03:26:38;96449.72;;;13.93;49.94
78206;BME280;67480;48.920;12.880;2023-05-10T03:29:05;96447.25;;;13.88;49.13
78206;BME280;67480;48.920;12.880;2023-05-10T03:31:31;96451.03;;;13.99;50.03
78206;BME280;67480;48.920;12.880;2023-05-10T03:33:57;96451.22;;;14.06;50.03
78206;BME280;67480;48.920;12.880;2023-05-10T03:36:22;96452.66;;;13.88;50.05
78206;BME280;67480;48.920;12.880;2023-05-10T03:38:47;96460.34;;;13.86;49.86
78206;BME280;67480;48.920;12.880;2023-05-10T03:41:13;96460.28;;;13.98;49.40
78206;BME280;67480;48.920;12.880;2023-05-10T03:43:38;96459.22;;;13.87;49.43
78206;BME280;67480;48.920;12.880;2023-05-10T03:46:05;96463.13;;;13.89;49.54
78206;BME280;67480;48.920;12.880;2023-05-10T03:48:31;96458.00;;;14.00;49.50
78206;BME280;67480;48.920;12.880;2023-05-10T03:50:56;96455.91;;;13.93;48.49
78206;BME280;67480;48.920;12.880;2023-05-10T03:53:22;96454.28;;;14.05;48.61
78206;BME280;67480;48.920;12.880;2023-05-10T03:55:48;96456.63;;;14.06;49.66
78206;BME280;67480;48.920;12.880;2023-05-10T03:58:13;96449.97;;;14.04;49.28
78206;BME280;67480;48.920;12.880;2023-05-10T04:00:39;96451.31;;;14.10;49.88
78206;BME280;67480;48.920;12.880;2023-05-10T04:03:09;96452.41;;;14.09;49.91
78206;BME280;67480;48.920;12.880;2023-05-10T04:05:35;96454.00;;;14.10;50.48
78206;BME280;67480;48.920;12.880;2023-05-10T04:08:00;96447.53;;;13.98;50.50
78206;BME280;67480;48.920;12.880;2023-05-10T04:10:25;96457.25;;;13.99;51.08
78206;BME280;67480;48.920;12.880;2023-05-10T04:12:51;96451.38;;;13.97;51.54
78206;BME280;67480;48.920;12.880;2023-05-10T04:15:16;96455.75;;;13.86;51.75
78206;BME280;67480;48.920;12.880;2023-05-10T04:17:41;96456.78;;;13.81;51.39
78206;BME280;67480;48.920;12.880;2023-05-10T04:20:07;96455.19;;;13.80;53.02
78206;BME280;67480;48.920;12.880;2023-05-10T04:22:33;96452.66;;;13.88;52.51
78206;BME280;67480;48.920;12.880;2023-05-10T04:24:58;96459.31;;;13.90;52.40
78206;BME280;67480;48.920;12.880;2023-05-10T04:27:23;96455.91;;;13.93;52.98
78206;BME280;67480;48.920;12.880;2023-05-10T04:29:49;96451.38;;;13.81;53.44
78206;BME280;67480;48.920;12.880;2023-05-10T04:32:15;96461.16;;;13.86;53.73
78206;BME280;67480;48.920;12.880;2023-05-10T04:34:42;96461.03;;;13.83;53.64
78206;BME280;67480;48.920;12.880;2023-05-10T04:37:07;96460.34;;;13.86;53.71
78206;BME280;67480;48.920;12.880;2023-05-10T04:39:32;96462.78;;;13.91;53.55
78206;BME280;67480;48.920;12.880;2023-05-10T04:41:58;96460.91;;;13.91;54.07
78206;BME280;67480;48.920;12.880;2023-05-10T04:44:23;96463.06;;;13.86;54.05
78206;BME280;67480;48.920;12.880;2023-05-10T04:46:48;96461.59;;;13.88;54.09
78206;BME280;67480;48.920;12.880;2023-05-10T04:49:13;96457.72;;;13.89;53.65
78206;BME280;67480;48.920;12.880;2023-05-10T04:51:39;96468.34;;;13.66;53.85
78206;BME280;67480;48.920;12.880;2023-05-10T04:54:04;96465.72;;;13.70;53.79
78206;BME280;67480;48.920;12.880;2023-05-10T04:56:30;96460.59;;;13.80;53.43
78206;BME280;67480;48.920;12.880;2023-05-10T04:58:55;96460.88;;;13.75;54.46
78206;BME280;67480;48.920;12.880;2023-05-10T05:01:20;96468.91;;;13.72;54.40
78206;BME280;67480;48.920;12.880;2023-05-10T05:03:45;96463.56;;;13.75;54.26
78206;BME280;67480;48.920;12.880;2023-05-10T05:06:11;96467.47;;;13.78;54.80
78206;BME280;67480;48.920;12.880;2023-05-10T05:08:36;96470.41;;;13.85;54.97
78206;BME280;67480;48.920;12.880;2023-05-10T05:11:01;96470.44;;;13.73;55.79
78206;BME280;67480;48.920;12.880;2023-05-10T05:13:27;96469.56;;;13.69;56.09
78206;BME280;67480;48.920;12.880;2023-05-10T05:15:52;96472.81;;;13.74;56.06
78206;BME280;67480;48.920;12.880;2023-05-10T05:18:18;96467.59;;;13.81;55.57
78206;BME280;67480;48.920;12.880;2023-05-10T05:20:43;96467.69;;;13.85;56.40
78206;BME280;67480;48.920;12.880;2023-05-10T05:23:08;96468.56;;;13.89;55.83
78206;BME280;67480;48.920;12.880;2023-05-10T05:25:34;96473.69;;;13.78;54.85
78206;BME280;67480;48.920;12.880;2023-05-10T05:27:59;96477.53;;;13.77;55.12
78206;BME280;67480;48.920;12.880;2023-05-10T05:30:24;96476.84;;;13.80;54.94
78206;BME280;67480;48.920;12.880;2023-05-10T05:32:50;96480.09;;;13.86;54.84
78206;BME280;67480;48.920;12.880;2023-05-10T05:35:15;96488.97;;;13.87;55.50
78206;BME280;67480;48.920;12.880;2023-05-10T05:37:41;96491.31;;;13.72;55.93
78206;BME280;67480;48.920;12.880;2023-05-10T05:40:06;96488.25;;;13.74;56.36
78206;BME280;67480;48.920;12.880;2023-05-10T05:42:32;96491.81;;;13.78;55.69
78206;BME280;67480;48.920;12.880;2023-05-10T05:44:57;96483.78;;;13.66;56.46
78206;BME280;67480;48.920;12.880;2023-05-10T05:47:23;96489.53;;;13.36;57.48
78206;BME280;67480;48.920;12.880;2023-05-10T05:49:48;96486.28;;;13.30;59.11
78206;BME280;67480;48.920;12.880;2023-05-10T05:52:13;96491.06;;;13.49;58.61
78206;BME280;67480;48.920;12.880;2023-05-10T05:54:39;96484.63;;;13.54;58.69
78206;BME280;67480;48.920;12.880;2023-05-10T05:57:04;96491.13;;;13.65;58.12
78206;BME280;67480;48.920;12.880;2023-05-10T05:59:30;96495.22;;;13.47;57.87
78206;BME280;67480;48.920;12.880;2023-05-10T06:01:55;96495.63;;;13.33;58.02
78206;BME280;67480;48.920;12.880;2023-05-10T06:04:20;96501.31;;;13.43;57.73
78206;BME280;67480;48.920;12.880;2023-05-10T06:06:46;96501.66;;;13.42;58.50
78206;BME280;67480;48.920;12.880;2023-05-10T06:09:11;96511.44;;;13.47;58.86
78206;BME280;67480;48.920;12.880;2023-05-10T06:11:36;96507.59;;;13.19;59.94
78206;BME280;67480;48.920;12.880;2023-05-10T06:14:02;96503.72;;;13.20;60.43
78206;BME280;67480;48.920;12.880;2023-05-10T06:16:29;96507.69;;;13.23;60.37
78206;BME280;67480;48.920;12.880;2023-05-10T06:18:54;96512.47;;;13.42;60.40
78206;BME280;67480;48.920;12.880;2023-05-10T06:21:20;96509.66;;;13.51;59.91
78206;BME280;67480;48.920;12.880;2023-05-10T06:23:45;96510.34;;;13.48;59.88
78206;BME280;67480;48.920;12.880;2023-05-10T06:26:11;96525.13;;;13.38;60.15
78206;BME280;67480;48.920;12.880;2023-05-10T06:28:36;96519.84;;;13.29;60.19
78206;BME280;67480;48.920;12.880;2023-05-10T06:31:04;96522.75;;;13.24;60.00
78206;BME280;67480;48.920;12.880;2023-05-10T06:33:30;96520.63;;;13.30;60.35
78206;BME280;67480;48.920;12.880;2023-05-10T06:35:55;96523.06;;;13.47;59.92
78206;BME280;67480;48.920;12.880;2023-05-10T06:38:21;96522.69;;;13.49;60.49
78206;BME280;67480;48.920;12.880;2023-05-10T06:40:46;96524.34;;;13.66;60.32
78206;BME280;67480;48.920;12.880;2023-05-10T06:43:11;96527.44;;;13.80;60.29
78206;BME280;67480;48.920;12.880;2023-05-10T06:45:37;96518.91;;;13.94;59.72
78206;BME280;67480;48.920;12.880;2023-05-10T06:48:02;96526.34;;;13.97;59.58
78206;BME280;67480;48.920;12.880;2023-05-10T06:50:27;96520.16;;;13.96;59.76
78206;BME280;67480;48.920;12.880;2023-05-10T06:52:53;96516.91;;;13.91;60.31
78206;BME280;67480;48.920;12.880;2023-05-10T06:55:18;96524.53;;;14.01;59.90
78206;BME280;67480;48.920;12.880;2023-05-10T06:57:43;96524.53;;;14.01;60.07
78206;BME280;67480;48.920;12.880;2023-05-10T07:00:09;96527.84;;;13.94;60.08
78206;BME280;67480;48.920;12.880;2023-05-10T07:02:35;96529.66;;;13.62;60.95
78206;BME280;67480;48.920;12.880;2023-05-10T07:05:01;96533.47;;;13.61;61.13
78206;BME280;67480;48.920;12.880;2023-05-10T07:07:27;96533.47;;;13.61;61.96
78206;BME280;67480;48.920;12.880;2023-05-10T07:09:52;96538.63;;;13.25;61.17
78206;BME280;67480;48.920;12.880;2023-05-10T07:12:18;96538.56;;;13.10;61.12
78206;BME280;67480;48.920;12.880;2023-05-10T07:14:43;96544.75;;;12.98;62.23
78206;BME280;67480;48.920;12.880;2023-05-10T07:17:09;96542.56;;;13.16;62.21
78206;BME280;67480;48.920;12.880;2023-05-10T07:19:34;96542.72;;;13.07;60.75
78206;BME280;67480;48.920;12.880;2023-05-10T07:21:59;96549.00;;;13.36;61.76
78206;BME280;67480;48.920;12.880;2023-05-10T07:24:25;96542.84;;;13.63;59.47
78206;BME280;67480;48.920;12.880;2023-05-10T07:26:50;96547.84;;;13.77;60.28
78206;BME280;67480;48.920;12.880;2023-05-10T07:29:15;96558.13;;;13.72;59.02
78206;BME280;67480;48.920;12.880;2023-05-10T07:31:41;96564.75;;;13.46;60.87
78206;BME280;67480;48.920;12.880;2023-05-10T07:34:08;96566.00;;;13.36;60.51
78206;BME280;67480;48.920;12.880;2023-05-10T07:36:34;96572.09;;;13.33;61.32
78206;BME280;67480;48.920;12.880;2023-05-10T07:38:59;96574.47;;;13.63;60.34
78206;BME280;67480;48.920;12.880;2023-05-10T07:41:24;96575.72;;;13.66;61.14
78206;BME280;67480;48.920;12.880;2023-05-10T07:43:49;96577.50;;;13.33;61.84
78206;BME280;67480;48.920;12.880;2023-05-10T07:46:15;96577.91;;;13.48;61.84
78206;BME280;67480;48.920;12.880;2023-05-10T07:48:40;96573.53;;;13.31;62.01
78206;BME280;67480;48.920;12.880;2023-05-10T07:51:06;96576.72;;;13.33;62.35
78206;BME280;67480;48.920;12.880;2023-05-10T07:53:34;96582.16;;;13.49;61.80
78206;BME280;67480;48.920;12.880;2023-05-10T07:56:39;96581.06;;;13.50;61.54
78206;BME280;67480;48.920;12.880;2023-05-10T07:59:05;96585.41;;;13.26;61.68
78206;BME280;67480;48.920;12.880;2023-05-10T08:01:33;96582.56;;;13.35;62.11
78206;BME280;67480;48.920;12.880;2023-05-10T08:03:59;96588.84;;;13.39;62.80
78206;BME280;67480;48.920;12.880;2023-05-10T08:06:25;96589.81;;;13.59;62.02
78206;BME280;67480;48.920;12.880;2023-05-10T08:08:52;96586.13;;;13.39;61.54
78206;BME280;67480;48.920;12.880;2023-05-10T08:11:19;96590.31;;;13.36;62.77
78206;BME280;67480;48.920;12.880;2023-05-10T08:13:46;96596.63;;;13.28;62.69
78206;BME280;67480;48.920;12.880;2023-05-10T08:16:11;96594.13;;;13.35;63.15
78206;BME280;67480;48.920;12.880;2023-05-10T08:18:37;96596.63;;;13.28;63.06
78206;BME280;67480;48.920;12.880;2023-05-10T08:21:03;96601.59;;;13.26;63.36
78206;BME280;67480;48.920;12.880;2023-05-10T08:23:28;96606.06;;;13.22;63.30
78206;BME280;67480;48.920;12.880;2023-05-10T08:25:53;96608.88;;;13.25;63.42
78206;BME280;67480;48.920;12.880;2023-05-10T08:28:18;96609.13;;;13.33;63.68
78206;BME280;67480;48.920;12.880;2023-05-10T08:30:44;96608.56;;;13.39;63.64
78206;BME280;67480;48.920;12.880;2023-05-10T08:33:09;96610.00;;;13.49;63.41
78206;BME280;67480;48.920;12.880;2023-05-10T08:35:34;96614.75;;;13.52;63.41
78206;BME280;67480;48.920;12.880;2023-05-10T08:38:00;96620.00;;;13.49;63.65
78206;BME280;67480;48.920;12.880;2023-05-10T08:40:26;96626.84;;;13.71;63.22
78206;BME280;67480;48.920;12.880;2023-05-10T08:42:57;96624.50;;;13.69;64.24
78206;BME280;67480;48.920;12.880;2023-05-10T08:45:24;96623.13;;;13.75;63.40
78206;BME280;67480;48.920;12.880;2023-05-10T08:47:52;96623.03;;;13.72;63.75
78206;BME280;67480;48.920;12.880;2023-05-10T08:50:19;96630.00;;;13.73;63.33
78206;BME280;67480;48.920;12.880;2023-05-10T08:52:45;96631.44;;;13.83;64.05
78206;BME280;67480;48.920;12.880;2023-05-10T08:55:13;96627.41;;;13.76;64.06
78206;BME280;67480;48.920;12.880;2023-05-10T08:57:39;96633.31;;;13.41;63.83
78206;BME280;67480;48.920;12.880;2023-05-10T09:00:04;96629.03;;;13.65;63.61
78206;BME280;67480;48.920;12.880;2023-05-10T09:02:31;96632.41;;;13.62;64.24
78206;BME280;67480;48.920;12.880;2023-05-10T09:04:56;96635.31;;;13.69;64.47
78206;BME280;67480;48.920;12.880;2023-05-10T09:07:21;96639.13;;;13.68;63.49
78206;BME280;67480;48.920;12.880;2023-05-10T09:09:47;96639.03;;;13.65;64.04
78206;BME280;67480;48.920;12.880;2023-05-10T09:12:13;96645.09;;;13.74;64.78
78206;BME280;67480;48.920;12.880;2023-05-10T09:14:41;96640.38;;;13.71;63.49
78206;BME280;67480;48.920;12.880;2023-05-10T09:17:07;96653.75;;;13.79;63.72
78206;BME280;67480;48.920;12.880;2023-05-10T09:19:32;96645.94;;;13.50;63.74
78206;BME280;67480;48.920;12.880;2023-05-10T09:21:58;96642.66;;;13.56;63.20
78206;BME280;67480;48.920;12.880;2023-05-10T09:24:25;96654.28;;;13.57;63.44
78206;BME280;67480;48.920;12.880;2023-05-10T09:26:52;96656.16;;;13.56;63.50
78206;BME280;67480;48.920;12.880;2023-05-10T09:29:17;96651.53;;;13.69;63.95
78206;BME280;67480;48.920;12.880;2023-05-10T09:31:47;96661.94;;;13.42;64.78
78206;BME280;67480;48.920;12.880;2023-05-10T09:34:17;96655.59;;;13.75;63.97
78206;BME280;67480;48.920;12.880;2023-05-10T09:36:54;96655.06;;;13.45;64.28
78206;BME280;67480;48.920;12.880;2023-05-10T09:39:19;96655.38;;;13.56;64.49
78206;BME280;67480;48.920;12.880;2023-05-10T09:41:45;96659.31;;;13.71;64.29
78206;BME280;67480;48.920;12.880;2023-05-10T09:44:10;96662.88;;;13.87;64.36
78206;BME280;67480;48.920;12.880;2023-05-10T09:46:36;96662.78;;;13.71;64.57
78206;BME280;67480;48.920;12.880;2023-05-10T09:49:01;96662.78;;;13.71;64.12
78206;BME280;67480;48.920;12.880;2023-05-10T09:51:27;96662.94;;;13.62;64.77
78206;BME280;67480;48.920;12.880;2023-05-10T09:54:15;96656.69;;;13.74;63.98
78206;BME280;67480;48.920;12.880;2023-05-10T09:56:41;96652.78;;;13.72;64.39
78206;BME280;67480;48.920;12.880;2023-05-10T09:59:09;96655.50;;;14.00;63.74
78206;BME280;67480;48.920;12.880;2023-05-10T10:01:34;96655.13;;;14.14;63.39
78206;BME280;67480;48.920;12.880;2023-05-10T10:04:09;96652.91;;;14.04;63.58
78206;BME280;67480;48.920;12.880;2023-05-10T10:06:39;96646.59;;;14.28;63.64
78206;BME280;67480;48.920;12.880;2023-05-10T10:09:05;96654.13;;;14.79;63.00
78206;BME280;67480;48.920;12.880;2023-05-10T10:11:31;96650.41;;;14.99;62.79
78206;BME280;67480;48.920;12.880;2023-05-10T10:13:58;96651.88;;;14.81;61.55
78206;BME280;67480;48.920;12.880;2023-05-10T10:16:24;96642.88;;;15.08;62.75
78206;BME280;67480;48.920;12.880;2023-05-10T10:18:49;96648.47;;;15.16;61.87
78206;BME280;67480;48.920;12.880;2023-05-10T10:21:15;96649.88;;;14.78;62.74
78206;BME280;67480;48.920;12.880;2023-05-10T10:23:41;96651.44;;;14.63;62.31
78206;BME280;67480;48.920;12.880;2023-05-10T10:26:06;96651.50;;;14.22;63.69
78206;BME280;67480;48.920;12.880;2023-05-10T10:31:45;96650.81;;;14.53;62.42
78206;BME280;67480;48.920;12.880;2023-05-10T10:34:06;96652.63;;;14.49;64.00
78206;BME280;67480;48.920;12.880;2023-05-10T10:36:40;96652.53;;;14.46;63.42
78206;BME280;67480;48.920;12.880;2023-05-10T10:39:09;96646.81;;;14.79;63.68
78206;BME280;67480;48.920;12.880;2023-05-10T10:41:40;96645.31;;;14.82;62.79
78206;BME280;67480;48.920;12.880;2023-05-10T10:47:04;96641.44;;;15.31;61.75
78206;BME280;67480;48.920;12.880;2023-05-10T10:52:27;96642.84;;;15.24;61.66
78206;BME280;67480;48.920;12.880;2023-05-10T10:55:07;96647.91;;;15.58;60.66
78206;BME280;67480;48.920;12.880;2023-05-10T11:00:18;96644.84;;;15.59;60.77
78206;BME280;67480;48.920;12.880;2023-05-10T11:02:46;96643.75;;;15.44;61.13
78206;BME280;67480;48.920;12.880;2023-05-10T11:07:54;96638.94;;;14.90;62.46
78206;BME280;67480;48.920;12.880;2023-05-10T11:10:21;96639.97;;;15.17;61.34
78206;BME280;67480;48.920;12.880;2023-05-10T11:13:06;96639.97;;;15.33;60.35
78206;BME280;67480;48.920;12.880;2023-05-10T11:15:37;96634.38;;;15.26;61.75
78206;BME280;67480;48.920;12.880;2023-05-10T11:18:32;96632.81;;;15.25;62.52
78206;BME280;67480;48.920;12.880;2023-05-10T11:20:59;96630.88;;;15.25;63.28
78206;BME280;67480;48.920;12.880;2023-05-10T11:23:50;96633.81;;;15.52;62.02
78206;BME280;67480;48.920;12.880;2023-05-10T11:26:17;96634.19;;;15.70;60.35
78206;BME280;67480;48.920;12.880;2023-05-10T11:28:46;96633.16;;;15.94;60.24
78206;BME280;67480;48.920;12.880;2023-05-10T11:31:16;96637.50;;;16.18;61.17
78206;BME280;67480;48.920;12.880;2023-05-10T11:33:50;96625.88;;;16.38;58.95
78206;BME280;67480;48.920;12.880;2023-05-10T11:36:23;96632.22;;;16.45;57.56
78206;BME280;67480;48.920;12.880;2023-05-10T11:38:49;96631.34;;;16.61;58.19
78206;BME280;67480;48.920;12.880;2023-05-10T11:41:16;96636.22;;;16.74;57.65
78206;BME280;67480;48.920;12.880;2023-05-10T11:43:42;96642.09;;;16.77;56.10
78206;BME280;67480;48.920;12.880;2023-05-10T11:46:10;96644.19;;;17.10;56.22
78206;BME280;67480;48.920;12.880;2023-05-10T11:48:38;96635.56;;;17.27;57.49
78206;BME280;67480;48.920;12.880;2023-05-10T11:51:04;96640.22;;;17.27;55.43
78206;BME280;67480;48.920;12.880;2023-05-10T11:53:31;96637.63;;;16.88;53.85
78206;BME280;67480;48.920;12.880;2023-05-10T11:56:10;96634.06;;;16.84;54.39
78206;BME280;67480;48.920;12.880;2023-05-10T11:58:37;96643.06;;;17.11;54.78
78206;BME280;67480;48.920;12.880;2023-05-10T12:01:04;96639.91;;;17.32;52.96
78206;BME280;67480;48.920;12.880;2023-05-10T12:03:30;96633.44;;;17.40;52.76
78206;BME280;67480;48.920;12.880;2023-05-10T12:05:56;96640.50;;;17.75;53.69
78206;BME280;67480;48.920;12.880;2023-05-10T12:08:23;96637.34;;;17.43;51.81
78206;BME280;67480;48.920;12.880;2023-05-10T12:10:49;96634.13;;;17.34;52.30
78206;BME280;67480;48.920;12.880;2023-05-10T12:13:15;96638.34;;;17.58;52.79
78206;BME280;67480;48.920;12.880;2023-05-10T12:15:41;96642.22;;;17.57;51.95
78206;BME280;67480;48.920;12.880;2023-05-10T12:18:14;96633.72;;;17.62;50.77
78206;BME280;67480;48.920;12.880;2023-05-10T12:20:40;96645.75;;;17.61;50.14
78206;BME280;67480;48.920;12.880;2023-05-10T12:23:05;96645.72;;;17.57;50.82
78206;BME280;67480;48.920;12.880;2023-05-10T12:25:34;96635.06;;;17.45;50.33
78206;BME280;67480;48.920;12.880;2023-05-10T12:28:06;96641.47;;;17.60;50.51
78206;BME280;67480;48.920;12.880;2023-05-10T12:30:33;96633.56;;;17.78;50.48
78206;BME280;67480;48.920;12.880;2023-05-10T12:33:01;96632.50;;;17.86;50.03
78206;BME280;67480;48.920;12.880;2023-05-10T12:35:30;96636.72;;;17.83;49.98
78206;BME280;67480;48.920;12.880;2023-05-10T12:37:55;96642.03;;;17.73;50.63
78206;BME280;67480;48.920;12.880;2023-05-10T12:40:21;96643.34;;;17.56;50.18
78206;BME280;67480;48.920;12.880;2023-05-10T12:42:46;96638.59;;;17.76;49.58
78206;BME280;67480;48.920;12.880;2023-05-10T12:45:12;96642.91;;;17.80;51.56
78206;BME280;67480;48.920;12.880;2023-05-10T12:47:38;96642.28;;;17.91;51.99
78206;BME280;67480;48.920;12.880;2023-05-10T12:50:03;96640.84;;;18.00;47.55
78206;BME280;67480;48.920;12.880;2023-05-10T12:52:30;96641.56;;;17.97;49.91
78206;BME280;67480;48.920;12.880;2023-05-10T12:54:57;96637.88;;;17.52;51.92
78206;BME280;67480;48.920;12.880;2023-05-10T12:57:23;96638.66;;;17.26;52.19
78206;BME280;67480;48.920;12.880;2023-05-10T12:59:48;96646.34;;;17.47;52.17
78206;BME280;67480;48.920;12.880;2023-05-10T13:02:14;96640.19;;;17.50;52.22
78206;BME280;67480;48.920;12.880;2023-05-10T13:04:40;96637.22;;;17.62;52.41
78206;BME280;67480;48.920;12.880;2023-05-10T13:07:06;96637.66;;;17.64;53.11
78206;BME280;67480;48.920;12.880;2023-05-10T13:09:32;96643.59;;;17.74;50.86
78206;BME280;67480;48.920;12.880;2023-05-10T13:11:57;96648.38;;;17.27;52.67
78206;BME280;67480;48.920;12.880;2023-05-10T13:14:23;96641.69;;;17.74;52.29
78206;BME280;67480;48.920;12.880;2023-05-10T13:16:48;96642.63;;;17.59;50.44
78206;BME280;67480;48.920;12.880;2023-05-10T13:19:14;96643.22;;;18.06;50.71